Charlack, Missouri
Current Conditions -  °F | °C
As of 1:51 PM on Friday 28 Nov 2014 (Local Time) from KSTL Reporting Station
Scattered Clouds Scattered Clouds  
Wind Chill: 51°   Ceiling: Unl
Heat Index: 51°   Visibility: 10mi
Dew Point: 32°   Wind: 14mph
Humidity: 48%   Direction: 160°SSE
Pressure: 29.99"   Gusts: 20mph
Location:  38.702°N, 90.3628°W
Report Text: KSTL 281951Z 16012G17KT 10SM SCT250 11/00 A2999 RMK AO2 SLP162 T01060000
Loading
Personal Weather Stations






























Interactive Weather Map New forecast layout! Learn more

10-Day Weather Forecast

Advertisements
Track Severe Weather on mobile